Time;durP1;ratioP1;P1;durP2;ratioP2;P2;SDS_P1;SDS_P2;PMS_P1;PMS_P2;Temp;Humidity;BMP_temperature;BMP_pressure;BME280_temperature;BME280_humidity;BME280_pressure;Samples;Min_cycle;Max_cycle;Signal;HPM_P1;HPM_P2
2023/09/19 00:01:30;;;;;;;2.73;2.40;;;19.90;99.90;;;;;;10337185;28;20238;-81
2023/09/19 00:06:32;;;;;;;2.87;2.67;;;20.00;99.90;;;;;;10298028;28;20204;-81
2023/09/19 00:11:35;;;;;;;2.20;2.10;;;19.90;99.90;;;;;;10336808;28;20227;-81
2023/09/19 00:16:37;;;;;;;2.40;2.30;;;19.90;99.90;;;;;;10337815;28;20699;-81
2023/09/19 00:21:40;;;;;;;2.10;2.00;;;19.90;99.90;;;;;;10337622;28;20215;-81
2023/09/19 00:26:46;;;;;;;2.40;2.30;;;19.90;99.90;;;;;;10341794;28;20193;-81
2023/09/19 00:31:48;;;;;;;2.40;2.30;;;19.80;99.90;;;;;;10337165;28;20278;-81
2023/09/19 00:36:54;;;;;;;3.90;2.20;;;19.80;99.90;;;;;;10338431;28;20248;-81
2023/09/19 00:41:57;;;;;;;2.73;2.20;;;19.80;99.90;;;;;;10337388;28;20325;-81
2023/09/19 00:46:59;;;;;;;2.13;2.03;;;19.70;99.90;;;;;;10323345;28;20241;-81
2023/09/19 00:52:04;;;;;;;2.50;2.30;;;19.80;99.90;;;;;;10326928;28;20220;-81
2023/09/19 00:57:08;;;;;;;2.20;2.10;;;19.80;99.90;;;;;;10328019;28;20215;-81
2023/09/19 01:02:12;;;;;;;2.27;2.17;;;19.80;99.90;;;;;;10322318;28;20232;-81
2023/09/19 01:07:15;;;;;;;2.30;2.20;;;19.80;99.90;;;;;;10343866;28;20200;-81
2023/09/19 01:12:25;;;;;;;2.30;2.20;;;19.70;99.90;;;;;;10344665;28;20219;-80
2023/09/19 01:17:31;;;;;;;2.30;2.20;;;19.70;99.90;;;;;;10345487;28;20212;-81
2023/09/19 01:22:45;;;;;;;2.30;2.20;;;19.70;99.90;;;;;;10328198;28;20311;-81
2023/09/19 01:28:22;;;;;;;2.30;2.17;;;19.70;99.90;;;;;;10327593;28;20222;-78
2023/09/19 01:33:26;;;;;;;2.10;2.00;;;19.70;99.90;;;;;;10340265;28;20224;-81
2023/09/19 01:38:28;;;;;;;2.43;2.33;;;19.70;99.90;;;;;;10346543;28;20200;-81
2023/09/19 01:43:37;;;;;;;2.23;2.13;;;19.70;99.90;;;;;;10324598;28;20308;-81
2023/09/19 01:48:47;;;;;;;2.03;1.93;;;19.70;99.90;;;;;;10325151;28;20200;-80
2023/09/19 01:53:56;;;;;;;2.00;1.90;;;19.70;99.90;;;;;;10341295;28;20228;-81
2023/09/19 01:59:04;;;;;;;2.27;2.17;;;19.80;99.90;;;;;;10323814;28;20597;-81
2023/09/19 02:04:09;;;;;;;2.57;2.40;;;19.80;99.90;;;;;;10324150;28;20222;-81
2023/09/19 02:09:11;;;;;;;2.13;2.03;;;19.70;99.90;;;;;;10342145;28;20219;-81
2023/09/19 02:14:14;;;;;;;2.20;2.10;;;19.80;99.90;;;;;;10326902;28;20243;-81
2023/09/19 02:19:20;;;;;;;2.23;2.13;;;19.70;99.90;;;;;;10341394;28;20250;-80
2023/09/19 02:24:26;;;;;;;2.43;2.33;;;19.70;99.90;;;;;;10308732;28;20212;-81
2023/09/19 02:29:29;;;;;;;2.20;2.10;;;19.70;99.90;;;;;;10342590;28;20187;-81
2023/09/19 02:34:32;;;;;;;2.53;2.20;;;19.70;99.90;;;;;;10328540;28;20691;-81
2023/09/19 02:39:35;;;;;;;2.30;2.20;;;19.60;99.90;;;;;;10340825;28;20624;-80
2023/09/19 02:44:38;;;;;;;2.00;1.90;;;19.70;99.90;;;;;;10322630;28;20208;-81
2023/09/19 02:49:42;;;;;;;2.40;2.30;;;19.60;99.90;;;;;;10318309;28;20212;-81
2023/09/19 02:54:44;;;;;;;2.80;2.60;;;19.50;99.90;;;;;;10322319;28;20224;-81
2023/09/19 02:59:47;;;;;;;3.17;2.97;;;19.40;99.90;;;;;;10341030;28;20263;-81
2023/09/19 03:04:51;;;;;;;2.50;2.40;;;19.40;99.90;;;;;;10386079;23;20251;-80
2023/09/19 03:09:55;;;;;;;2.27;2.17;;;19.40;99.90;;;;;;10360080;28;20740;-80
2023/09/19 03:14:57;;;;;;;2.00;1.90;;;19.50;99.90;;;;;;10338842;28;20228;-79
2023/09/19 03:20:01;;;;;;;2.00;1.90;;;19.50;99.90;;;;;;10344928;28;20254;-79
2023/09/19 03:25:07;;;;;;;2.03;1.93;;;19.50;99.90;;;;;;10336625;28;20224;-79
2023/09/19 03:30:13;;;;;;;2.10;2.00;;;19.50;99.90;;;;;;10355044;28;20249;-80
2023/09/19 03:35:18;;;;;;;2.00;1.90;;;19.60;99.90;;;;;;10300204;28;20219;-79
2023/09/19 03:40:23;;;;;;;2.13;2.03;;;19.60;99.90;;;;;;10318160;28;20202;-79
2023/09/19 03:45:25;;;;;;;2.30;2.20;;;19.70;99.90;;;;;;10319474;28;20223;-80
2023/09/19 03:50:30;;;;;;;2.40;2.30;;;19.70;99.90;;;;;;10357445;28;20203;-80
2023/09/19 03:55:32;;;;;;;2.70;1.80;;;19.70;99.90;;;;;;10358053;28;20225;-80
2023/09/19 04:00:34;;;;;;;1.80;1.70;;;19.70;99.90;;;;;;10313619;28;20218;-79
2023/09/19 04:05:38;;;;;;;3.33;2.03;;;19.70;99.90;;;;;;10348480;28;20237;-80
2023/09/19 04:10:42;;;;;;;2.10;2.00;;;19.70;99.90;;;;;;10356766;28;20218;-80
2023/09/19 04:15:46;;;;;;;2.37;2.27;;;19.70;99.90;;;;;;10361723;28;20773;-80
2023/09/19 04:20:50;;;;;;;2.13;2.03;;;19.60;99.90;;;;;;10348332;28;20717;-78
2023/09/19 04:25:53;;;;;;;2.03;1.90;;;19.50;99.90;;;;;;10354320;28;20314;-79
2023/09/19 04:30:56;;;;;;;2.07;1.90;;;19.50;99.90;;;;;;10345999;28;20566;-80
2023/09/19 04:35:59;;;;;;;2.13;2.00;;;19.60;99.90;;;;;;10381712;28;20305;-80
2023/09/19 04:41:02;;;;;;;3.27;3.00;;;19.60;99.90;;;;;;10369002;28;20218;-78
2023/09/19 04:46:06;;;;;;;2.53;1.90;;;19.60;99.90;;;;;;10337192;28;20906;-79
2023/09/19 04:51:10;;;;;;;2.30;2.20;;;19.60;99.90;;;;;;10345313;28;20802;-80
2023/09/19 04:56:13;;;;;;;2.50;2.30;;;19.70;99.90;;;;;;10372382;28;20227;-79
2023/09/19 05:01:16;;;;;;;2.30;2.20;;;19.60;99.90;;;;;;10339337;28;20204;-79
2023/09/19 05:06:20;;;;;;;2.23;2.13;;;19.60;99.90;;;;;;10378090;28;20215;-80
2023/09/19 05:11:24;;;;;;;4.00;3.77;;;19.50;99.90;;;;;;10341011;28;20196;-80
2023/09/19 05:16:26;;;;;;;5.00;4.80;;;19.20;99.90;;;;;;10379181;28;20298;-80
2023/09/19 05:21:31;;;;;;;4.87;4.57;;;18.90;99.90;;;;;;10327612;28;20287;-80
2023/09/19 05:26:33;;;;;;;4.87;4.30;;;18.70;99.90;;;;;;10378335;28;20219;-79
2023/09/19 05:31:36;;;;;;;5.20;5.00;;;18.60;99.90;;;;;;10351491;28;20203;-79
2023/09/19 05:36:40;;;;;;;6.63;6.10;;;18.40;99.90;;;;;;10309245;28;20279;-80
2023/09/19 05:41:42;;;;;;;5.90;5.50;;;18.30;99.90;;;;;;10323552;28;20196;-80
2023/09/19 05:46:45;;;;;;;6.57;6.27;;;18.20;99.90;;;;;;10328922;28;20312;-79
2023/09/19 05:51:48;;;;;;;5.70;5.50;;;18.20;99.90;;;;;;10318611;28;20282;-80
2023/09/19 05:56:52;;;;;;;6.17;5.87;;;18.20;99.90;;;;;;10382466;28;20223;-80
2023/09/19 06:01:55;;;;;;;9.30;8.90;;;18.20;99.90;;;;;;10327354;28;20200;-80
2023/09/19 06:06:58;;;;;;;11.43;10.83;;;18.10;99.90;;;;;;10290862;28;20192;-82
2023/09/19 06:12:03;;;;;;;9.30;8.90;;;18.10;99.90;;;;;;10338066;28;20254;-81
2023/09/19 06:17:06;;;;;;;10.93;10.47;;;18.00;99.90;;;;;;10334226;28;20222;-81
2023/09/19 06:22:10;;;;;;;8.77;8.37;;;18.00;99.90;;;;;;10364808;28;20222;-81
2023/09/19 06:27:13;;;;;;;9.33;8.83;;;18.00;99.90;;;;;;10369466;28;20191;-82
2023/09/19 06:32:15;;;;;;;9.77;9.10;;;18.00;99.90;;;;;;10321619;28;20246;-81
2023/09/19 06:37:18;;;;;;;9.10;8.70;;;18.00;99.90;;;;;;10350609;28;20307;-82
2023/09/19 06:42:22;;;;;;;9.57;9.00;;;17.90;99.90;;;;;;10374100;28;20230;-82
2023/09/19 06:47:25;;;;;;;6.57;5.93;;;18.00;99.90;;;;;;10349074;28;20233;-82
2023/09/19 06:52:29;;;;;;;9.03;8.63;;;18.00;99.90;;;;;;10358649;28;20223;-82
2023/09/19 06:57:31;;;;;;;9.23;8.90;;;18.00;99.90;;;;;;10369456;28;20250;-82
2023/09/19 07:02:33;;;;;;;8.90;8.50;;;18.10;99.90;;;;;;10347108;28;20235;-82
2023/09/19 07:07:37;;;;;;;9.93;9.00;;;18.20;99.90;;;;;;10374590;28;20199;-82
2023/09/19 07:12:40;;;;;;;6.57;6.27;;;18.40;99.90;;;;;;10354545;28;20586;-82
2023/09/19 07:17:42;;;;;;;8.37;7.60;;;18.50;99.90;;;;;;10352887;28;20227;-82
2023/09/19 07:22:46;;;;;;;7.63;7.03;;;18.60;99.90;;;;;;10361363;28;20227;-82
2023/09/19 07:27:48;;;;;;;7.30;7.00;;;18.70;99.90;;;;;;10343929;28;20192;-82
2023/09/19 07:32:50;;;;;;;7.30;7.00;;;18.80;99.90;;;;;;10366957;28;20245;-82
2023/09/19 07:37:56;;;;;;;5.77;5.47;;;18.80;99.90;;;;;;10364571;28;20215;-81
2023/09/19 07:43:01;;;;;;;7.97;7.57;;;18.80;99.90;;;;;;10345536;28;20251;-82
2023/09/19 07:48:06;;;;;;;7.57;7.17;;;18.90;99.90;;;;;;10360140;28;20674;-82
2023/09/19 07:53:09;;;;;;;5.13;4.80;;;19.00;99.90;;;;;;10356114;28;20295;-82
2023/09/19 07:58:12;;;;;;;7.07;6.37;;;19.10;99.90;;;;;;10358461;28;20262;-82
2023/09/19 08:03:14;;;;;;;6.20;5.63;;;19.20;99.90;;;;;;10351911;28;20231;-82
2023/09/19 08:08:18;;;;;;;5.23;3.43;;;19.20;99.90;;;;;;10333517;28;20295;-82
2023/09/19 08:13:21;;;;;;;5.77;5.40;;;19.20;99.90;;;;;;10368827;28;20214;-81
2023/09/19 08:18:23;;;;;;;5.40;5.00;;;19.20;99.90;;;;;;10339735;28;20721;-82
2023/09/19 08:23:28;;;;;;;2.70;2.50;;;19.20;99.90;;;;;;10326702;28;20243;-82
2023/09/19 08:28:30;;;;;;;3.63;3.47;;;19.30;99.90;;;;;;10366051;28;20198;-82
2023/09/19 08:33:33;;;;;;;3.90;3.60;;;19.30;99.90;;;;;;10335751;28;20595;-82
2023/09/19 08:38:37;;;;;;;3.33;3.13;;;19.40;99.90;;;;;;10370993;28;20275;-82
2023/09/19 08:43:39;;;;;;;4.90;2.10;;;19.50;99.90;;;;;;10365582;28;20697;-81
2023/09/19 08:48:49;;;;;;;3.23;3.13;;;19.60;99.90;;;;;;10361891;28;20231;-82
2023/09/19 08:54:00;;;;;;;2.97;2.77;;;19.70;99.90;;;;;;10347771;28;20228;-82
2023/09/19 08:59:04;;;;;;;3.43;3.23;;;19.80;99.90;;;;;;10351656;28;20258;-82
2023/09/19 09:04:12;;;;;;;3.10;2.90;;;19.90;99.90;;;;;;10357524;28;20228;-81
2023/09/19 09:09:16;;;;;;;3.20;2.73;;;20.00;99.90;;;;;;10364276;28;20289;-81
2023/09/19 09:14:19;;;;;;;3.20;3.00;;;20.10;99.90;;;;;;10377276;28;20214;-82
2023/09/19 09:19:24;;;;;;;2.50;2.40;;;20.10;99.90;;;;;;10356132;28;20746;-82
2023/09/19 09:24:33;;;;;;;2.70;2.50;;;20.10;99.90;;;;;;10336521;28;20216;-82
2023/09/19 09:29:48;;;;;;;2.57;2.47;;;20.20;99.90;;;;;;10376720;28;20286;-81
2023/09/19 09:34:52;;;;;;;4.00;2.43;;;20.30;99.90;;;;;;10353298;28;20581;-81
2023/09/19 09:39:58;;;;;;;2.40;2.30;;;20.40;99.90;;;;;;10359433;28;20696;-81
2023/09/19 09:45:17;;;;;;;3.07;1.93;;;20.40;99.90;;;;;;10381277;28;20223;-81
2023/09/19 09:50:38;;;;;;;2.33;2.13;;;20.60;99.90;;;;;;10356502;28;20250;-81
2023/09/19 09:56:00;;;;;;;2.40;2.20;;;20.80;99.90;;;;;;10380221;28;20223;-81
2023/09/19 10:01:08;;;;;;;1.90;1.80;;;21.20;99.90;;;;;;10383497;28;20206;-81
2023/09/19 10:06:25;;;;;;;3.97;2.40;;;21.40;99.90;;;;;;10329444;28;20231;-81
2023/09/19 10:11:30;;;;;;;2.73;2.53;;;21.50;99.90;;;;;;10384658;28;20209;-81
2023/09/19 10:16:35;;;;;;;3.13;2.03;;;21.60;99.90;;;;;;10341082;28;20260;-81
2023/09/19 10:21:40;;;;;;;3.07;2.23;;;21.70;99.90;;;;;;10336299;28;20574;-81
2023/09/19 10:26:45;;;;;;;2.23;2.03;;;21.80;99.10;;;;;;10383925;28;20294;-81
2023/09/19 10:31:50;;;;;;;4.20;1.83;;;21.90;98.10;;;;;;10370485;28;20209;-81
2023/09/19 10:36:53;;;;;;;2.00;1.80;;;21.90;98.70;;;;;;10359907;28;20219;-81
2023/09/19 10:42:05;;;;;;;3.13;2.00;;;21.80;98.50;;;;;;10344963;28;20267;-81
2023/09/19 10:47:07;;;;;;;2.27;2.17;;;21.70;97.80;;;;;;10394211;28;20596;-81
2023/09/19 10:52:15;;;;;;;2.10;2.00;;;21.70;99.00;;;;;;10347557;28;20202;-81
2023/09/19 10:57:23;;;;;;;1.90;1.70;;;21.60;99.80;;;;;;10312578;28;20235;-81
2023/09/19 11:02:26;;;;;;;2.10;1.70;;;21.40;98.90;;;;;;10318884;28;20230;-81
2023/09/19 11:07:30;;;;;;;1.60;1.50;;;21.40;98.50;;;;;;10342213;28;20223;-81
2023/09/19 11:12:54;;;;;;;2.43;2.23;;;21.30;98.60;;;;;;10301542;28;20582;-81
2023/09/19 11:17:56;;;;;;;2.20;2.00;;;21.30;99.30;;;;;;10324728;28;20247;-81
2023/09/19 11:23:26;;;;;;;2.60;1.70;;;21.40;99.50;;;;;;10379888;28;20219;-81
2023/09/19 11:28:31;;;;;;;2.23;1.60;;;21.40;98.70;;;;;;10346277;28;20645;-81
2023/09/19 11:33:36;;;;;;;2.00;1.80;;;21.30;98.30;;;;;;10351029;28;20727;-81
2023/09/19 11:39:08;;;;;;;1.70;1.60;;;21.20;97.90;;;;;;10353630;28;20215;-80
2023/09/19 11:44:36;;;;;;;2.20;1.60;;;21.20;96.70;;;;;;10338984;28;20667;-81
2023/09/19 11:49:42;;;;;;;2.00;1.90;;;21.10;97.10;;;;;;10327652;28;20199;-81
2023/09/19 11:54:47;;;;;;;6.20;1.70;;;21.10;95.50;;;;;;10327989;28;20228;-81
2023/09/19 11:59:53;;;;;;;1.70;1.60;;;21.10;95.60;;;;;;10347164;28;20230;-81
2023/09/19 12:04:55;;;;;;;1.73;1.63;;;21.10;96.00;;;;;;10351339;28;20220;-81
2023/09/19 12:10:05;;;;;;;1.43;1.33;;;21.10;95.80;;;;;;10344095;28;20595;-80
2023/09/19 12:15:11;;;;;;;5.03;3.07;;;21.10;96.90;;;;;;10342149;28;20223;-80
2023/09/19 12:20:13;;;;;;;2.40;2.20;;;21.20;96.20;;;;;;10331611;28;20211;-81
2023/09/19 12:25:17;;;;;;;3.23;1.80;;;21.20;96.50;;;;;;10359736;28;20223;-81
2023/09/19 12:30:21;;;;;;;1.80;1.70;;;21.20;96.10;;;;;;10325805;28;20227;-81
2023/09/19 12:35:30;;;;;;;2.27;1.83;;;21.20;96.30;;;;;;10323298;28;20227;-81
2023/09/19 12:40:33;;;;;;;2.77;1.97;;;21.30;95.00;;;;;;10362626;28;20200;-81
2023/09/19 12:45:38;;;;;;;1.80;1.70;;;21.40;96.60;;;;;;10330186;28;20219;-81
2023/09/19 12:51:07;;;;;;;2.30;1.83;;;21.50;97.00;;;;;;10367644;28;20200;-81
2023/09/19 12:56:11;;;;;;;1.90;1.80;;;21.50;96.10;;;;;;10357030;28;20592;-80
2023/09/19 13:01:17;;;;;;;1.90;1.80;;;21.50;96.70;;;;;;10379095;28;20200;-81
2023/09/19 13:06:40;;;;;;;1.70;1.60;;;21.60;94.40;;;;;;10362138;28;20215;-81
2023/09/19 13:11:44;;;;;;;2.03;1.60;;;21.60;96.10;;;;;;10359268;28;20655;-81
2023/09/19 13:17:03;;;;;;;2.40;1.97;;;21.70;95.70;;;;;;10342445;28;20223;-81
2023/09/19 13:22:08;;;;;;;3.50;2.40;;;21.80;95.90;;;;;;10340899;28;20226;-81
2023/09/19 13:27:10;;;;;;;1.63;1.50;;;21.90;94.80;;;;;;10359478;28;20681;-81
2023/09/19 13:32:14;;;;;;;1.80;1.70;;;22.00;95.10;;;;;;10369673;28;20215;-81
2023/09/19 13:37:17;;;;;;;2.00;1.90;;;22.10;96.10;;;;;;10338011;28;20223;-80
2023/09/19 13:42:21;;;;;;;2.23;2.13;;;22.10;94.50;;;;;;10320102;28;20226;-81
2023/09/19 13:47:26;;;;;;;2.60;1.70;;;22.00;95.40;;;;;;10365696;28;20201;-81
2023/09/19 13:52:30;;;;;;;1.67;1.57;;;22.00;94.70;;;;;;10342321;28;20223;-81
2023/09/19 13:57:33;;;;;;;2.03;1.83;;;22.00;94.70;;;;;;10352312;28;20694;-81
2023/09/19 14:02:36;;;;;;;2.00;1.90;;;22.00;94.30;;;;;;10354888;28;20238;-80
2023/09/19 14:07:38;;;;;;;1.73;1.63;;;22.00;94.40;;;;;;10351141;28;20312;-81
2023/09/19 14:12:41;;;;;;;2.13;1.93;;;22.00;94.50;;;;;;10366840;28;20220;-81
2023/09/19 14:17:45;;;;;;;1.93;1.83;;;21.90;94.50;;;;;;10348753;28;20310;-81
2023/09/19 14:22:47;;;;;;;1.83;1.73;;;21.90;94.60;;;;;;10359613;28;20223;-81
2023/09/19 14:27:49;;;;;;;2.00;1.90;;;21.90;94.70;;;;;;10366750;28;20271;-81
2023/09/19 14:32:53;;;;;;;1.40;1.30;;;22.00;92.90;;;;;;10350236;28;20220;-81
2023/09/19 14:37:55;;;;;;;1.83;1.73;;;22.00;93.80;;;;;;10359743;28;20767;-81
2023/09/19 14:42:57;;;;;;;1.73;1.63;;;22.10;92.40;;;;;;10346559;28;20641;-80
2023/09/19 14:48:01;;;;;;;1.87;1.77;;;22.10;92.50;;;;;;10333608;28;20211;-81
2023/09/19 14:53:09;;;;;;;2.70;1.97;;;22.10;92.10;;;;;;10360644;28;20216;-80
2023/09/19 14:58:12;;;;;;;1.73;1.50;;;22.20;92.10;;;;;;10348613;28;20219;-81
2023/09/19 15:03:15;;;;;;;2.10;2.00;;;22.20;92.40;;;;;;10372654;28;20702;-81
2023/09/19 15:08:17;;;;;;;1.20;1.10;;;22.30;93.10;;;;;;10340430;28;20196;-81
2023/09/19 15:13:20;;;;;;;2.07;1.83;;;22.30;92.30;;;;;;10320429;28;20216;-81
2023/09/19 15:18:23;;;;;;;2.37;1.80;;;22.30;92.20;;;;;;10313997;28;20229;-81
2023/09/19 15:23:25;;;;;;;1.63;1.50;;;22.20;92.80;;;;;;10311139;28;20735;-81
2023/09/19 15:28:32;;;;;;;1.97;1.83;;;22.20;92.10;;;;;;10318554;28;20192;-81
2023/09/19 15:33:35;;;;;;;1.90;1.80;;;22.20;92.90;;;;;;10311493;28;20307;-81
2023/09/19 15:38:59;;;;;;;1.50;1.40;;;22.20;94.00;;;;;;10336013;28;20228;-81
2023/09/19 15:44:03;;;;;;;1.50;1.40;;;22.20;92.50;;;;;;10342703;28;20263;-81
2023/09/19 15:49:07;;;;;;;1.77;1.40;;;22.20;93.30;;;;;;10333998;28;20204;-81
2023/09/19 15:54:13;;;;;;;1.83;1.47;;;22.10;93.20;;;;;;10318625;28;20643;-81
2023/09/19 15:59:15;;;;;;;1.90;1.80;;;22.10;94.20;;;;;;10331268;28;20245;-80
2023/09/19 16:04:19;;;;;;;2.70;1.70;;;22.00;93.80;;;;;;10319514;28;20290;-81
2023/09/19 16:09:21;;;;;;;1.93;1.80;;;22.00;93.10;;;;;;10317872;28;20250;-81
2023/09/19 16:14:24;;;;;;;1.60;1.50;;;22.00;94.80;;;;;;10323863;28;20230;-81
2023/09/19 16:19:27;;;;;;;1.10;1.00;;;22.00;93.00;;;;;;10315140;28;20677;-80
2023/09/19 16:24:29;;;;;;;1.47;1.37;;;21.90;93.60;;;;;;10318314;28;20232;-81
2023/09/19 16:29:31;;;;;;;2.17;1.97;;;21.90;93.90;;;;;;10346910;28;20200;-83
2023/09/19 16:34:35;;;;;;;1.90;1.80;;;21.90;95.50;;;;;;10320580;28;20223;-81
2023/09/19 16:39:37;;;;;;;2.03;1.93;;;21.90;94.00;;;;;;10328638;28;20221;-81
2023/09/19 16:51:25;;;;;;;2.00;1.90;;;21.90;92.70;;;;;;10330803;28;20215;-82
2023/09/19 17:11:02;;;;;;;2.27;2.17;;;21.70;96.10;;;;;;10294508;28;20211;-81
2023/09/19 17:24:07;;;;;;;2.10;2.00;;;21.50;95.70;;;;;;10304839;28;20216;-82
2023/09/19 17:29:39;;;;;;;1.63;1.53;;;21.40;96.00;;;;;;10327749;28;20219;-83
2023/09/19 17:35:33;;;;;;;2.37;2.17;;;21.30;96.00;;;;;;10305625;28;20228;-83
2023/09/19 17:46:41;;;;;;;;;;;;;;;;;;;;;
2023/09/19 17:52:46;;;;;;;1.43;1.40;;;20.80;96.40;;;;;;10299680;28;20220;-82
2023/09/19 18:05:16;;;;;;;2.60;2.40;;;20.60;97.20;;;;;;10315230;28;20710;-81
2023/09/19 18:10:49;;;;;;;3.40;2.10;;;20.50;97.10;;;;;;10285359;28;20283;-81
2023/09/19 18:15:58;;;;;;;2.30;2.10;;;20.40;97.60;;;;;;10309179;28;20232;-82
2023/09/19 18:21:19;;;;;;;2.83;2.20;;;20.30;97.60;;;;;;10337428;28;20666;-82
2023/09/19 18:26:35;;;;;;;2.00;1.90;;;20.20;97.70;;;;;;10315364;28;20319;-81
2023/09/19 18:31:47;;;;;;;3.13;2.10;;;20.10;97.90;;;;;;10298443;28;20207;-82
2023/09/19 18:36:54;;;;;;;2.77;2.43;;;20.10;97.90;;;;;;10299307;28;20794;-81
2023/09/19 18:41:56;;;;;;;3.60;2.27;;;20.00;97.80;;;;;;10298030;28;20204;-81
2023/09/19 18:47:01;;;;;;;2.40;2.30;;;19.90;98.00;;;;;;10303855;28;20208;-82
2023/09/19 18:52:07;;;;;;;2.10;2.00;;;19.90;98.00;;;;;;10306067;28;20235;-81
2023/09/19 18:57:11;;;;;;;2.20;2.10;;;19.80;98.20;;;;;;10294226;28;20711;-81
2023/09/19 19:02:14;;;;;;;12.93;2.53;;;19.70;98.40;;;;;;10279997;28;20227;-80
2023/09/19 19:07:21;;;;;;;2.17;2.07;;;19.70;98.30;;;;;;10334012;28;20207;-80
2023/09/19 19:12:24;;;;;;;6.03;2.73;;;19.60;98.20;;;;;;10327604;28;20269;-82
2023/09/19 19:17:28;;;;;;;2.70;2.43;;;19.50;98.50;;;;;;10309613;28;20263;-82
2023/09/19 19:22:31;;;;;;;2.73;2.53;;;19.50;98.60;;;;;;10331779;28;20289;-82
2023/09/19 19:27:35;;;;;;;4.03;2.60;;;19.50;98.80;;;;;;10321636;28;20195;-82
2023/09/19 19:32:38;;;;;;;3.13;2.93;;;19.40;98.80;;;;;;10331815;28;20564;-82
2023/09/19 19:37:41;;;;;;;3.33;3.03;;;19.40;98.90;;;;;;10295660;28;20220;-82
2023/09/19 19:42:43;;;;;;;3.47;2.97;;;19.40;98.80;;;;;;10316150;28;20247;-81
2023/09/19 19:47:47;;;;;;;2.80;2.20;;;19.30;98.90;;;;;;10313896;28;20204;-81
2023/09/19 19:52:53;;;;;;;2.47;2.37;;;19.30;98.60;;;;;;10325574;28;20282;-82
2023/09/19 19:57:55;;;;;;;3.10;2.40;;;19.30;99.00;;;;;;10293019;28;20231;-82
2023/09/19 20:02:58;;;;;;;2.53;2.33;;;19.20;99.00;;;;;;10328429;28;20238;-82
2023/09/19 20:08:00;;;;;;;2.50;2.30;;;19.20;98.80;;;;;;10319612;28;20208;-82
2023/09/19 20:13:06;;;;;;;2.30;2.20;;;19.20;98.50;;;;;;10325093;28;20371;-83
2023/09/19 20:18:12;;;;;;;3.00;2.57;;;19.10;98.10;;;;;;10307256;28;20259;-82
2023/09/19 20:23:14;;;;;;;2.70;2.50;;;19.10;98.30;;;;;;10327126;28;20607;-82
2023/09/19 20:28:17;;;;;;;2.47;2.27;;;19.00;97.80;;;;;;10312208;28;20282;-80
2023/09/19 20:33:24;;;;;;;2.40;2.20;;;19.00;97.90;;;;;;10313287;28;20219;-82
2023/09/19 20:38:26;;;;;;;2.40;2.20;;;18.90;97.80;;;;;;10309342;28;20224;-82
2023/09/19 20:43:29;;;;;;;2.63;2.43;;;18.80;97.90;;;;;;10324567;28;20378;-82
2023/09/19 20:48:32;;;;;;;2.83;2.63;;;18.70;98.30;;;;;;10324029;28;20207;-82
2023/09/19 20:53:36;;;;;;;3.00;2.80;;;18.70;98.30;;;;;;10307943;28;20885;-82
2023/09/19 20:58:39;;;;;;;2.80;2.60;;;18.60;98.20;;;;;;10323426;28;20313;-80
2023/09/19 21:03:43;;;;;;;3.10;2.83;;;18.50;98.10;;;;;;10334060;28;20247;-81
2023/09/19 21:08:45;;;;;;;2.73;2.53;;;18.50;98.50;;;;;;10343123;28;20204;-82
2023/09/19 21:13:49;;;;;;;2.57;2.47;;;18.40;98.50;;;;;;10330754;28;20232;-82
2023/09/19 21:18:53;;;;;;;2.60;2.40;;;18.40;98.80;;;;;;10317635;28;20299;-81
2023/09/19 21:23:55;;;;;;;2.67;2.47;;;18.40;98.20;;;;;;10324766;28;20232;-80
2023/09/19 21:28:57;;;;;;;3.10;2.40;;;18.40;98.60;;;;;;10328642;28;20211;-82
2023/09/19 21:34:02;;;;;;;3.03;2.50;;;18.40;98.60;;;;;;10328419;28;20224;-80
2023/09/19 21:39:05;;;;;;;2.60;2.50;;;18.40;98.80;;;;;;10338677;28;20220;-80
2023/09/19 21:44:07;;;;;;;2.43;2.33;;;18.40;98.70;;;;;;10337235;28;20231;-81
2023/09/19 21:49:12;;;;;;;3.00;2.70;;;18.40;98.70;;;;;;10315024;28;20228;-81
2023/09/19 21:54:14;;;;;;;2.87;2.67;;;18.50;98.50;;;;;;10330787;28;20638;-82
2023/09/19 21:59:16;;;;;;;2.97;2.77;;;18.50;98.40;;;;;;10321133;28;20220;-81
2023/09/19 22:04:21;;;;;;;2.60;2.40;;;18.50;98.20;;;;;;10329803;28;20315;-81
2023/09/19 22:09:26;;;;;;;2.70;2.50;;;18.50;98.20;;;;;;10320946;28;20220;-81
2023/09/19 22:14:31;;;;;;;2.90;2.70;;;18.60;97.90;;;;;;10335844;28;20238;-81
2023/09/19 22:19:38;;;;;;;2.80;2.60;;;18.60;98.30;;;;;;10329648;28;20260;-82
2023/09/19 22:24:41;;;;;;;2.80;2.50;;;18.60;97.60;;;;;;10319167;28;20223;-81
2023/09/19 22:29:44;;;;;;;2.87;2.67;;;18.60;97.70;;;;;;10315420;28;20709;-81
2023/09/19 22:34:49;;;;;;;2.47;2.30;;;18.60;97.30;;;;;;10315440;28;20232;-82
2023/09/19 22:39:51;;;;;;;2.97;2.77;;;18.60;97.50;;;;;;10330623;28;20230;-82
2023/09/19 22:44:54;;;;;;;2.70;2.50;;;18.60;97.80;;;;;;10316291;28;20331;-81
2023/09/19 22:49:59;;;;;;;4.50;4.10;;;18.60;97.50;;;;;;10309403;28;20216;-80
2023/09/19 22:55:02;;;;;;;3.23;2.97;;;18.60;97.90;;;;;;10297488;28;20219;-81
2023/09/19 23:00:06;;;;;;;3.40;3.10;;;18.60;98.00;;;;;;10304015;28;20250;-81
2023/09/19 23:05:14;;;;;;;3.90;3.17;;;18.60;98.00;;;;;;10316882;28;20311;-80
2023/09/19 23:10:17;;;;;;;2.90;2.70;;;18.60;97.70;;;;;;10335250;28;20372;-81
2023/09/19 23:15:19;;;;;;;5.13;2.90;;;18.50;97.80;;;;;;10328146;28;20220;-81
2023/09/19 23:20:26;;;;;;;2.73;2.60;;;18.50;97.70;;;;;;10333925;28;20222;-81
2023/09/19 23:31:40;;;;;;;2.60;2.40;;;18.40;97.60;;;;;;10350808;28;20254;-81
2023/09/19 23:36:55;;;;;;;2.67;2.57;;;18.40;98.00;;;;;;10317703;28;20261;-81
2023/09/19 23:42:02;;;;;;;4.30;2.30;;;18.40;98.20;;;;;;10316758;28;20219;-81
2023/09/19 23:47:10;;;;;;;2.70;2.50;;;18.40;98.00;;;;;;10318317;28;20678;-81
2023/09/19 23:52:42;;;;;;;3.33;3.13;;;18.30;98.10;;;;;;10330820;28;20220;-82
2023/09/19 23:58:02;;;;;;;2.47;2.37;;;18.30;98.50;;;;;;10335020;28;20230;-81
